createdAt,value
2023-01-05T00:01:40.985Z,10.52
2023-01-05T00:04:09.689Z,10.57
2023-01-05T00:06:37.529Z,10.67
2023-01-05T00:09:05.719Z,10.72
2023-01-05T00:11:52.266Z,10.56
2023-01-05T00:14:42.682Z,10.46
2023-01-05T00:17:34.205Z,10.28
2023-01-05T00:20:20.287Z,10.25
2023-01-05T00:22:49.183Z,10.34
2023-01-05T00:25:18.602Z,10.40
2023-01-05T00:27:48.487Z,10.54
2023-01-05T00:30:17.813Z,10.37
2023-01-05T00:32:46.564Z,10.33
2023-01-05T00:35:15.573Z,10.30
2023-01-05T00:37:43.716Z,10.31
2023-01-05T00:40:12.729Z,10.24
2023-01-05T00:42:40.444Z,10.32
2023-01-05T00:45:10.745Z,10.08
2023-01-05T00:47:38.626Z,9.89
2023-01-05T00:50:08.120Z,9.84
2023-01-05T00:52:36.198Z,9.95
2023-01-05T00:55:10.105Z,10.06
2023-01-05T00:57:38.182Z,10.07
2023-01-05T01:00:07.535Z,9.94
2023-01-05T01:02:35.494Z,9.99
2023-01-05T01:05:04.732Z,10.11
2023-01-05T01:07:32.215Z,9.93
2023-01-05T01:10:02.519Z,9.91
2023-01-05T01:12:30.626Z,9.76
2023-01-05T01:14:58.147Z,9.89
2023-01-05T01:17:26.237Z,9.98
2023-01-05T01:19:53.619Z,10.00
2023-01-05T01:22:21.223Z,10.03
2023-01-05T01:24:48.699Z,10.14
2023-01-05T01:27:16.184Z,10.18
2023-01-05T01:29:44.276Z,10.07
2023-01-05T01:32:11.889Z,9.95
2023-01-05T01:34:39.972Z,10.10
2023-01-05T01:37:07.407Z,10.07
2023-01-05T01:39:40.480Z,10.17
2023-01-05T01:42:14.177Z,10.18
2023-01-05T01:44:54.083Z,10.28
2023-01-05T01:47:29.188Z,10.37
2023-01-05T01:49:58.399Z,10.35
2023-01-05T01:52:27.779Z,10.29
2023-01-05T01:54:56.264Z,10.37
2023-01-05T01:57:26.839Z,10.34
2023-01-05T01:59:54.999Z,10.33
2023-01-05T02:02:23.242Z,10.14
2023-01-05T02:04:51.502Z,10.30
2023-01-05T02:07:19.528Z,10.19
2023-01-05T02:09:47.716Z,10.20
2023-01-05T02:12:22.897Z,10.34
2023-01-05T02:15:00.222Z,10.28
2023-01-05T02:17:36.893Z,10.14
2023-01-05T02:20:22.234Z,10.13
2023-01-05T02:23:03.098Z,10.05
2023-01-05T02:25:45.938Z,10.07
2023-01-05T02:28:43.367Z,10.01
2023-01-05T02:31:15.259Z,10.07
2023-01-05T02:33:55.727Z,10.11
2023-01-05T02:36:37.025Z,10.05
2023-01-05T02:39:12.208Z,9.93
2023-01-05T02:41:45.378Z,9.92
2023-01-05T02:44:18.495Z,9.94
2023-01-05T02:47:00.112Z,9.91
2023-01-05T02:49:29.751Z,10.01
2023-01-05T02:52:00.218Z,10.07
2023-01-05T02:54:34.132Z,10.07
2023-01-05T02:57:09.310Z,10.04
2023-01-05T02:59:40.538Z,10.16
2023-01-05T03:02:13.540Z,10.23
2023-01-05T03:04:47.749Z,9.92
2023-01-05T03:07:18.736Z,9.85
2023-01-05T03:09:52.389Z,9.83
2023-01-05T03:12:41.680Z,9.73
2023-01-05T03:15:11.358Z,9.96
2023-01-05T03:17:44.554Z,9.84
2023-01-05T03:20:14.765Z,9.68
2023-01-05T03:23:03.644Z,9.84
2023-01-05T03:25:52.039Z,9.73
2023-01-05T03:29:04.473Z,9.83
2023-01-05T03:32:13.393Z,9.81
2023-01-05T03:35:18.358Z,9.96
2023-01-05T03:38:07.363Z,9.73
2023-01-05T03:40:37.259Z,9.91
2023-01-05T03:43:05.828Z,9.94
2023-01-05T03:45:42.622Z,10.11
2023-01-05T03:48:15.010Z,10.07
2023-01-05T03:50:42.987Z,9.97
2023-01-05T03:53:17.553Z,9.84
2023-01-05T03:55:50.353Z,9.78
2023-01-05T03:58:18.488Z,9.69
2023-01-05T04:00:48.924Z,9.83
2023-01-05T04:03:20.060Z,9.81
2023-01-05T04:05:49.350Z,9.81
2023-01-05T04:08:17.664Z,9.97
2023-01-05T04:10:45.165Z,10.01
2023-01-05T04:13:14.732Z,10.10
2023-01-05T04:15:43.851Z,9.94
2023-01-05T04:18:13.000Z,9.72
2023-01-05T04:20:41.027Z,9.86
2023-01-05T04:23:09.428Z,9.91
2023-01-05T04:25:37.487Z,10.02
2023-01-05T04:28:16.201Z,9.79
2023-01-05T04:30:55.312Z,9.67
2023-01-05T04:33:25.070Z,9.68
2023-01-05T04:35:53.383Z,9.62
2023-01-05T04:38:21.878Z,9.65
2023-01-05T04:40:53.312Z,9.82
2023-01-05T04:43:24.606Z,9.83
2023-01-05T04:45:52.292Z,9.73
2023-01-05T04:48:20.871Z,9.94
2023-01-05T04:50:55.149Z,9.99
2023-01-05T04:53:30.648Z,10.04
2023-01-05T04:55:59.244Z,9.96
2023-01-05T04:58:32.711Z,9.96
2023-01-05T05:01:00.374Z,9.98
2023-01-05T05:03:33.115Z,10.05
2023-01-05T05:06:01.816Z,10.06
2023-01-05T05:08:30.582Z,10.09
2023-01-05T05:11:00.922Z,10.04
2023-01-05T05:13:31.396Z,10.07
2023-01-05T05:16:02.067Z,10.25
2023-01-05T05:18:31.752Z,10.22
2023-01-05T05:20:59.814Z,10.24
2023-01-05T05:23:31.637Z,10.24
2023-01-05T05:26:05.158Z,10.06
2023-01-05T05:28:34.377Z,10.02
2023-01-05T05:31:02.172Z,9.87
2023-01-05T05:33:29.662Z,9.86
2023-01-05T05:35:57.148Z,9.84
2023-01-05T05:38:24.588Z,9.95
2023-01-05T05:40:52.109Z,10.09
2023-01-05T05:43:19.526Z,9.97
2023-01-05T05:45:50.784Z,9.93
2023-01-05T05:48:19.099Z,10.13
2023-01-05T05:50:46.573Z,10.11
2023-01-05T05:53:16.968Z,10.05
2023-01-05T05:55:48.307Z,10.15
2023-01-05T05:58:15.894Z,10.25
2023-01-05T06:00:43.513Z,9.97
2023-01-05T06:03:11.169Z,10.01
2023-01-05T06:05:38.908Z,10.10
2023-01-05T06:08:06.473Z,10.08
2023-01-05T06:10:33.963Z,10.21
2023-01-05T06:13:02.280Z,10.03
2023-01-05T06:15:31.530Z,10.14
2023-01-05T06:18:00.130Z,9.97
2023-01-05T06:20:28.079Z,10.01
2023-01-05T06:22:56.071Z,10.13
2023-01-05T06:25:23.882Z,10.11
2023-01-05T06:27:51.753Z,10.17
2023-01-05T06:30:19.341Z,10.06
2023-01-05T06:32:46.756Z,10.07
2023-01-05T06:35:14.202Z,10.15
2023-01-05T06:37:41.774Z,10.21
2023-01-05T06:40:11.539Z,10.10
2023-01-05T06:42:39.691Z,10.20
2023-01-05T06:45:07.991Z,9.94
2023-01-05T06:47:36.844Z,9.81
2023-01-05T06:50:05.030Z,9.88
2023-01-05T06:52:37.108Z,9.81
2023-01-05T06:55:05.441Z,9.97
2023-01-05T06:57:39.256Z,9.99
2023-01-05T07:00:09.115Z,9.98
2023-01-05T07:02:37.059Z,10.11
2023-01-05T07:05:04.872Z,10.10
2023-01-05T07:07:32.493Z,10.09
2023-01-05T07:10:00.161Z,10.05
2023-01-05T07:12:28.266Z,10.18
2023-01-05T07:14:57.650Z,10.25
2023-01-05T07:17:26.029Z,10.32
2023-01-05T07:19:53.768Z,10.20
2023-01-05T07:22:21.961Z,10.16
2023-01-05T07:24:49.501Z,10.19
2023-01-05T07:27:16.920Z,10.34
2023-01-05T07:29:44.560Z,10.16
2023-01-05T07:32:11.992Z,10.05
2023-01-05T07:34:39.988Z,9.98
2023-01-05T07:37:07.661Z,9.98
2023-01-05T07:39:35.659Z,10.23
2023-01-05T07:42:03.267Z,9.99
2023-01-05T07:44:34.419Z,10.23
2023-01-05T07:47:02.436Z,10.43
2023-01-05T07:49:30.133Z,10.37
2023-01-05T07:51:57.485Z,10.28
2023-01-05T07:54:25.786Z,10.52
2023-01-05T07:56:53.159Z,10.69
2023-01-05T07:59:20.687Z,10.75
2023-01-05T08:01:49.068Z,10.80
2023-01-05T08:04:16.668Z,10.56
2023-01-05T08:06:44.135Z,10.62
2023-01-05T08:09:30.503Z,10.47
2023-01-05T08:11:57.972Z,10.45
2023-01-05T08:14:25.572Z,10.49
2023-01-05T08:16:53.216Z,10.55
2023-01-05T08:19:21.049Z,10.74
2023-01-05T08:21:49.170Z,10.74
2023-01-05T08:24:17.076Z,10.77
2023-01-05T08:26:44.904Z,10.92
2023-01-05T08:29:12.429Z,10.78
2023-01-05T08:31:39.842Z,10.90
2023-01-05T08:34:07.369Z,10.83
2023-01-05T08:36:35.050Z,10.88
2023-01-05T08:39:02.671Z,10.98
2023-01-05T08:41:35.815Z,10.96
2023-01-05T08:44:05.041Z,10.90
2023-01-05T08:46:34.794Z,10.90
2023-01-05T08:49:04.141Z,10.86
2023-01-05T08:51:32.509Z,10.89
2023-01-05T08:54:00.140Z,10.64
2023-01-05T08:56:31.742Z,10.73
2023-01-05T08:59:02.403Z,10.84
2023-01-05T09:01:31.079Z,10.90
2023-01-05T09:03:58.493Z,10.91
2023-01-05T09:06:26.311Z,11.21
2023-01-05T09:08:55.045Z,11.27
2023-01-05T09:11:23.467Z,11.28
2023-01-05T09:13:51.991Z,11.43
2023-01-05T09:19:14.171Z,11.70
2023-01-05T09:21:44.750Z,11.77
2023-01-05T09:24:13.014Z,11.74
2023-01-05T09:26:43.879Z,11.84
2023-01-05T09:29:13.274Z,12.09
2023-01-05T09:31:41.728Z,12.15
2023-01-05T09:34:10.232Z,12.22
2023-01-05T09:36:41.023Z,12.39
2023-01-05T09:39:08.809Z,12.33
2023-01-05T09:41:55.546Z,12.34
2023-01-05T09:44:29.767Z,12.09
2023-01-05T09:47:02.697Z,12.02
2023-01-05T09:49:32.004Z,11.99
2023-01-05T09:52:02.207Z,12.12
2023-01-05T09:54:33.174Z,12.28
2023-01-05T09:57:10.328Z,12.63
2023-01-05T09:59:41.457Z,12.78
2023-01-05T10:02:27.949Z,12.58
2023-01-05T10:04:55.670Z,12.23
2023-01-05T10:07:38.116Z,11.94
2023-01-05T10:10:09.218Z,12.26
2023-01-05T10:13:05.859Z,12.16
2023-01-05T10:15:40.452Z,11.67
2023-01-05T10:18:14.708Z,11.83
2023-01-05T10:20:52.282Z,11.75
2023-01-05T10:23:39.984Z,11.98
2023-01-05T10:26:10.713Z,11.91
2023-01-05T10:28:52.981Z,12.07
2023-01-05T10:31:43.651Z,11.94
2023-01-05T10:34:16.402Z,12.16
2023-01-05T10:39:43.319Z,11.93
2023-01-05T10:42:34.331Z,11.92
2023-01-05T10:45:03.670Z,12.31
2023-01-05T10:47:35.947Z,12.92
2023-01-05T10:50:04.541Z,12.27
2023-01-05T10:52:32.654Z,12.54
2023-01-05T10:55:01.077Z,12.68
2023-01-05T10:57:34.074Z,12.74
2023-01-05T11:00:06.878Z,12.48
2023-01-05T11:02:37.489Z,12.65
2023-01-05T11:05:05.116Z,13.27
2023-01-05T11:07:33.140Z,13.06
2023-01-05T11:10:01.196Z,13.03
2023-01-05T11:12:28.562Z,13.29
2023-01-05T11:14:58.970Z,13.18
2023-01-05T11:17:27.589Z,12.89
2023-01-05T11:19:57.150Z,12.90
2023-01-05T11:22:27.261Z,13.01
2023-01-05T11:24:54.686Z,13.16
2023-01-05T11:27:21.977Z,13.24
2023-01-05T11:30:08.553Z,13.13
2023-01-05T11:32:36.055Z,13.56
2023-01-05T11:35:03.450Z,13.33
2023-01-05T11:37:31.253Z,13.39
2023-01-05T11:39:59.999Z,12.34
2023-01-05T11:42:29.773Z,12.11
2023-01-05T11:44:58.478Z,12.70
2023-01-05T11:47:44.288Z,12.17
2023-01-05T11:50:17.341Z,11.95
2023-01-05T11:52:46.277Z,12.12
2023-01-05T11:55:19.708Z,12.07
2023-01-05T11:57:48.007Z,11.58
2023-01-05T12:00:31.962Z,11.48
2023-01-05T12:03:18.138Z,11.59
2023-01-05T12:05:54.787Z,11.88
2023-01-05T12:08:32.858Z,12.08
2023-01-05T12:11:05.957Z,12.50
2023-01-05T12:13:52.881Z,13.49
2023-01-05T12:16:32.214Z,13.55
2023-01-05T12:19:12.827Z,13.65
2023-01-05T12:22:02.410Z,14.42
2023-01-05T12:24:30.235Z,14.91
2023-01-05T12:27:13.453Z,14.91
2023-01-05T12:35:53.528Z,16.08
2023-01-05T12:38:27.321Z,15.87
2023-01-05T12:40:57.959Z,16.40
2023-01-05T12:43:43.982Z,16.82
2023-01-05T12:46:31.971Z,16.10
2023-01-05T12:49:05.795Z,15.64
2023-01-05T12:51:36.333Z,15.18
2023-01-05T12:54:08.064Z,16.07
2023-01-05T12:56:44.463Z,16.74
2023-01-05T12:59:20.774Z,17.29
2023-01-05T13:01:57.643Z,17.29
2023-01-05T13:04:27.428Z,16.93
2023-01-05T13:06:57.858Z,17.36
2023-01-05T13:09:28.031Z,17.58
2023-01-05T13:11:59.589Z,16.11
2023-01-05T13:14:31.444Z,16.74
2023-01-05T13:17:02.040Z,17.35
2023-01-05T13:19:38.606Z,18.28
2023-01-05T13:22:11.195Z,17.88
2023-01-05T13:24:44.266Z,17.56
2023-01-05T13:27:12.485Z,17.78
2023-01-05T13:29:41.863Z,18.35
2023-01-05T13:32:09.554Z,18.71
2023-01-05T13:34:59.405Z,18.16
2023-01-05T13:37:26.960Z,17.78
2023-01-05T13:39:54.267Z,18.33
2023-01-05T13:42:22.269Z,17.74
2023-01-05T13:44:58.973Z,16.89
2023-01-05T13:47:45.948Z,15.73
2023-01-05T13:50:33.820Z,15.19
2023-01-05T13:53:01.183Z,15.78
2023-01-05T13:55:30.198Z,17.07
2023-01-05T13:57:58.965Z,16.60
2023-01-05T14:00:29.219Z,15.40
2023-01-05T14:03:02.205Z,16.22
2023-01-05T14:05:31.993Z,15.67
2023-01-05T14:08:01.851Z,15.43
2023-01-05T14:10:31.215Z,17.00
2023-01-05T14:12:59.069Z,17.21
2023-01-05T14:15:32.433Z,17.56
2023-01-05T14:18:02.390Z,18.13
2023-01-05T14:20:34.583Z,18.23
2023-01-05T14:23:04.502Z,17.95
2023-01-05T14:25:40.892Z,18.06
2023-01-05T14:28:21.750Z,18.18
2023-01-05T14:30:53.339Z,18.98
2023-01-05T14:33:21.094Z,19.50
2023-01-05T14:35:48.603Z,19.25
2023-01-05T14:38:19.535Z,19.01
2023-01-05T14:40:52.929Z,18.73
2023-01-05T14:43:32.340Z,17.77
2023-01-05T14:46:22.150Z,16.26
2023-01-05T14:49:05.389Z,16.01
2023-01-05T14:51:34.540Z,15.35
2023-01-05T14:54:05.910Z,15.19
2023-01-05T14:56:34.656Z,14.49
2023-01-05T14:59:02.133Z,14.27
2023-01-05T15:01:32.688Z,13.82
2023-01-05T15:04:15.282Z,13.60
2023-01-05T15:07:02.166Z,13.38
2023-01-05T15:09:32.410Z,13.33
2023-01-05T15:12:18.788Z,13.01
2023-01-05T15:14:46.196Z,12.98
2023-01-05T15:17:19.895Z,12.80
2023-01-05T15:19:47.865Z,12.67
2023-01-05T15:22:37.272Z,12.57
2023-01-05T15:25:09.122Z,12.54
2023-01-05T15:27:37.022Z,12.29
2023-01-05T15:30:17.768Z,12.26
2023-01-05T15:32:46.323Z,12.17
2023-01-05T15:35:16.627Z,12.13
2023-01-05T15:37:47.221Z,11.94
2023-01-05T15:40:14.736Z,11.78
2023-01-05T15:42:46.707Z,11.65
2023-01-05T15:45:20.110Z,11.63
2023-01-05T15:47:47.939Z,11.62
2023-01-05T15:50:38.865Z,11.52
2023-01-05T15:53:06.503Z,11.38
2023-01-05T15:55:33.909Z,11.33
2023-01-05T15:58:08.327Z,11.13
2023-01-05T16:00:36.411Z,11.03
2023-01-05T16:03:20.434Z,10.97
2023-01-05T16:05:50.064Z,10.94
2023-01-05T16:08:18.030Z,10.89
2023-01-05T16:10:47.932Z,10.88
2023-01-05T16:13:17.088Z,10.83
2023-01-05T16:15:51.216Z,10.88
2023-01-05T16:18:22.475Z,10.89
2023-01-05T16:20:52.316Z,10.87
2023-01-05T16:23:34.469Z,10.76
2023-01-05T16:26:02.402Z,10.75
2023-01-05T16:28:30.201Z,10.68
2023-01-05T16:30:58.429Z,10.63
2023-01-05T16:33:35.283Z,10.61
2023-01-05T16:36:09.968Z,10.57
2023-01-05T16:38:37.806Z,10.54
2023-01-05T16:41:08.157Z,10.51
2023-01-05T16:43:38.346Z,10.49
2023-01-05T16:46:25.427Z,10.59
2023-01-05T16:48:54.760Z,10.56
2023-01-05T16:51:23.885Z,10.48
2023-01-05T16:53:57.244Z,10.44
2023-01-05T16:56:33.833Z,10.33
2023-01-05T16:59:02.404Z,10.35
2023-01-05T17:01:37.675Z,10.22
2023-01-05T17:04:12.540Z,10.28
2023-01-05T17:06:41.347Z,10.22
2023-01-05T17:09:18.960Z,10.23
2023-01-05T17:11:46.296Z,10.17
2023-01-05T17:14:14.764Z,10.22
2023-01-05T17:16:42.300Z,10.15
2023-01-05T17:19:12.785Z,10.06
2023-01-05T17:21:41.127Z,10.15
2023-01-05T17:24:11.268Z,10.20
2023-01-05T17:26:41.189Z,10.10
2023-01-05T17:29:22.042Z,10.15
2023-01-05T17:31:50.615Z,10.14
2023-01-05T17:34:18.512Z,10.14
2023-01-05T17:36:47.559Z,9.97
2023-01-05T17:39:16.182Z,9.93
2023-01-05T17:41:43.808Z,9.85
2023-01-05T17:44:11.243Z,9.93
2023-01-05T17:46:43.420Z,9.96
2023-01-05T17:49:15.831Z,9.92
2023-01-05T17:52:18.580Z,9.85
2023-01-05T17:54:46.366Z,9.89
2023-01-05T17:57:13.752Z,9.96
2023-01-05T18:02:14.646Z,10.07
2023-01-05T18:04:42.422Z,10.07
2023-01-05T18:07:09.944Z,10.08
2023-01-05T18:09:38.197Z,10.08
2023-01-05T18:12:05.711Z,10.06
2023-01-05T18:14:33.068Z,9.92
2023-01-05T18:17:00.929Z,9.90
2023-01-05T18:19:31.538Z,9.87
2023-01-05T18:22:00.192Z,9.74
2023-01-05T18:24:28.255Z,9.66
2023-01-05T18:26:56.239Z,9.60
2023-01-05T18:29:24.078Z,9.66
2023-01-05T18:31:52.703Z,9.66
2023-01-05T18:34:20.348Z,9.80
2023-01-05T18:36:52.469Z,9.77
2023-01-05T18:39:26.513Z,9.70
2023-01-05T18:41:54.748Z,9.83
2023-01-05T18:44:22.611Z,9.74
2023-01-05T18:46:52.167Z,9.96
2023-01-05T18:49:19.652Z,9.99
2023-01-05T18:51:50.215Z,10.11
2023-01-05T18:54:18.507Z,10.05
2023-01-05T18:56:45.859Z,9.99
2023-01-05T18:59:13.993Z,10.19
2023-01-05T19:01:43.171Z,10.30
2023-01-05T19:04:11.192Z,10.34
2023-01-05T19:06:39.855Z,10.21
2023-01-05T19:09:09.101Z,10.20
2023-01-05T19:11:37.525Z,10.09
2023-01-05T19:14:05.641Z,10.00
2023-01-05T19:16:35.203Z,10.03
2023-01-05T19:19:08.394Z,10.19
2023-01-05T19:21:37.139Z,10.30
2023-01-05T19:24:05.312Z,10.17
2023-01-05T19:26:33.890Z,10.09
2023-01-05T19:29:02.248Z,10.29
2023-01-05T19:31:30.392Z,10.41
2023-01-05T19:34:01.789Z,10.48
2023-01-05T19:36:35.551Z,10.45
2023-01-05T19:39:07.608Z,10.46
2023-01-05T19:41:35.992Z,10.53
2023-01-05T19:44:03.737Z,10.44
2023-01-05T19:46:31.580Z,10.43
2023-01-05T19:49:01.041Z,10.28
2023-01-05T19:51:29.863Z,10.26
2023-01-05T19:53:58.801Z,10.35
2023-01-05T19:56:28.038Z,10.40
2023-01-05T19:58:59.279Z,10.38
2023-01-05T20:01:28.133Z,10.22
2023-01-05T20:03:56.043Z,10.28
2023-01-05T20:06:25.006Z,10.31
2023-01-05T20:08:53.168Z,10.31
2023-01-05T20:11:35.723Z,10.25
2023-01-05T20:14:22.133Z,10.30
2023-01-05T20:16:57.095Z,10.08
2023-01-05T20:19:28.853Z,10.14
2023-01-05T20:21:57.557Z,10.22
2023-01-05T20:24:26.356Z,10.11
2023-01-05T20:26:55.905Z,10.13
2023-01-05T20:29:24.908Z,10.14
2023-01-05T20:32:06.315Z,10.08
2023-01-05T20:34:36.476Z,9.94
2023-01-05T20:37:04.762Z,9.92
2023-01-05T20:39:32.605Z,9.83
2023-01-05T20:42:04.750Z,10.00
2023-01-05T20:44:33.807Z,10.15
2023-01-05T20:47:03.103Z,9.97
2023-01-05T20:49:31.100Z,9.98
2023-01-05T20:51:58.969Z,10.13
2023-01-05T20:54:26.913Z,10.28
2023-01-05T20:56:54.348Z,10.31
2023-01-05T20:59:27.525Z,10.20
2023-01-05T21:01:55.506Z,10.31
2023-01-05T21:04:24.000Z,10.28
2023-01-05T21:06:54.412Z,10.26
2023-01-05T21:09:22.915Z,10.34
2023-01-05T21:11:50.638Z,10.43
2023-01-05T21:14:19.750Z,10.30
2023-01-05T21:16:48.718Z,10.29
2023-01-05T21:19:22.380Z,10.16
2023-01-05T21:21:51.368Z,10.04
2023-01-05T21:24:19.008Z,9.96
2023-01-05T21:26:46.365Z,10.10
2023-01-05T21:29:15.269Z,10.04
2023-01-05T21:31:42.998Z,9.81
2023-01-05T21:34:11.803Z,9.92
2023-01-05T21:36:41.751Z,9.98
2023-01-05T21:39:11.432Z,9.94
2023-01-05T21:41:59.325Z,9.95
2023-01-05T21:44:27.400Z,10.18
2023-01-05T21:46:54.766Z,10.20
2023-01-05T21:49:22.098Z,10.23
2023-01-05T21:52:08.515Z,10.07
2023-01-05T21:54:55.303Z,10.01
2023-01-05T21:57:26.904Z,10.13
2023-01-05T21:59:55.134Z,10.43
2023-01-05T22:02:22.514Z,10.41
2023-01-05T22:04:50.538Z,10.35
2023-01-05T22:07:17.963Z,10.46
2023-01-05T22:09:45.327Z,10.54
2023-01-05T22:12:13.206Z,10.50
2023-01-05T22:14:40.743Z,10.55
2023-01-05T22:17:09.018Z,10.61
2023-01-05T22:19:36.912Z,10.46
2023-01-05T22:22:04.667Z,10.38
2023-01-05T22:24:32.524Z,10.35
2023-01-05T22:27:01.697Z,10.36
2023-01-05T22:29:30.080Z,10.35
2023-01-05T22:31:58.785Z,10.22
2023-01-05T22:34:27.784Z,10.10
2023-01-05T22:36:55.206Z,9.99
2023-01-05T22:39:22.868Z,9.89
2023-01-05T22:41:50.747Z,9.89
2023-01-05T22:44:18.637Z,9.98
2023-01-05T22:46:46.352Z,10.15
2023-01-05T22:49:14.339Z,10.31
2023-01-05T22:51:41.939Z,10.26
2023-01-05T22:54:10.104Z,10.25
2023-01-05T22:56:37.493Z,10.29
2023-01-05T22:59:05.499Z,10.26
2023-01-05T23:01:35.951Z,10.31
2023-01-05T23:04:05.087Z,10.31
2023-01-05T23:06:33.409Z,10.26
2023-01-05T23:09:01.787Z,10.08
2023-01-05T23:11:30.675Z,10.20
2023-01-05T23:13:59.727Z,10.03
2023-01-05T23:16:27.493Z,10.02
2023-01-05T23:18:55.190Z,10.23
2023-01-05T23:21:24.578Z,10.16
2023-01-05T23:23:53.222Z,10.13
2023-01-05T23:26:21.289Z,10.19
2023-01-05T23:28:49.527Z,10.07
2023-01-05T23:31:19.234Z,10.05
2023-01-05T23:33:47.842Z,10.04
2023-01-05T23:36:16.105Z,10.02
2023-01-05T23:38:43.743Z,9.97
2023-01-05T23:41:12.135Z,10.04
2023-01-05T23:43:40.166Z,10.03
2023-01-05T23:46:11.857Z,10.24
2023-01-05T23:48:39.651Z,10.02
2023-01-05T23:51:13.325Z,10.03
2023-01-05T23:53:44.850Z,10.08
2023-01-05T23:56:13.916Z,10.04
2023-01-05T23:58:42.629Z,10.06
